Albert Lea, MN

8:07 PM CST on February 06, 2016 (GMT -0600)
Albert Lea Municipal

Weather History for KAEL - September, 2012

Change the Weather History Date:

Saturday, September 8, 2012

  Actual Average Record
Temperature  
Mean Temperature 61 °F -  
Max Temperature 78 °F 74 °F 91 °F (2002)
Min Temperature 44 °F 53 °F 41 °F (2010)
Degree Days  
Heating Degree Days 4    
Growing Degree Days 11 (Base 50)    
Moisture  
Dew Point 43 °F    
Average Humidity 61    
Maximum Humidity 93    
Minimum Humidity 24    
Precipitation  
Precipitation 0.00 in - - ()
Sea Level Pressure  
Sea Level Pressure 29.98 in    
Wind  
Wind Speed 6 mph (WNW)    
Max Wind Speed 23 mph    
Max Gust Speed 36 mph    
Visibility 10 miles    
Events      
Averages and records for this station are not official NWS values.
T = Trace of Precipitation, MM = Missing Value Source: NWS Daily Summary

Daily Weather History Graph

Daily Weather History Graph

Search for Another Location

Airport or City:

Trip Planner

Search our weather history database for the weather conditions in past years. The results will help you decide how hot, cold, wet, or windy it might be!

Date:

Astronomy

Sep. 08, 2012 Rise Set
Actual Time 6:45 AM CDT 7:35 PM CDT
Civil Twilight 6:16 AM CDT 8:04 PM CDT
Nautical Twilight 5:41 AM CDT 8:39 PM CDT
Astronomical Twilight 5:05 AM CDT 9:15 PM CDT
Moon No Moon Rise 2:41 PM CDT (9/8)
Length of Visible Light 13h 48m
Length of Day
12h 50m
Waning Gibbous, 48% of the Moon is Illuminated
Sep 8
Waning Gibbous
Sep 15
New
Sep 22
First Quarter
Sep 29
Full
Oct 8
Last Quarter

Hourly Weather History & Observations

Time (CDT) Temp. Windchill Dew Point Humidity Pressure Visibility Wind Dir Wind Speed Gust Speed Precip Events Conditions
12:14 AM 50.0 °F - 44.6 °F 82% 30.03 in 10.0 mi Calm Calm - N/A   Clear
12:34 AM 50.0 °F - 44.6 °F 82% 30.04 in 10.0 mi NW 3.5 mph - N/A   Clear
12:54 AM 50.0 °F - 44.6 °F 82% 30.04 in 10.0 mi WNW 3.5 mph - N/A   Clear
1:13 AM 50.0 °F - 44.6 °F 82% 30.04 in 10.0 mi NW 3.5 mph - N/A   Clear
1:34 AM 50.0 °F - 44.6 °F 82% 30.04 in 10.0 mi Calm Calm - N/A   Clear
1:54 AM 50.0 °F - 44.6 °F 82% 30.04 in 10.0 mi NW 3.5 mph - N/A   Clear
2:13 AM 48.2 °F - 44.6 °F 87% 30.04 in 10.0 mi WNW 3.5 mph - N/A   Clear
2:34 AM 46.4 °F - 44.6 °F 93% 30.04 in 10.0 mi Calm Calm - N/A   Clear
2:53 AM 46.4 °F - 44.6 °F 93% 30.04 in 10.0 mi Calm Calm - N/A   Clear
3:14 AM 46.4 °F 44.3 °F 44.6 °F 93% 30.05 in 10.0 mi WNW 4.6 mph - N/A   Clear
3:34 AM 46.4 °F - 44.6 °F 93% 30.04 in 10.0 mi Calm Calm - N/A   Clear
3:53 AM 46.4 °F - 44.6 °F 93% 30.05 in 10.0 mi Calm Calm - N/A   Clear
4:14 AM 46.4 °F 44.3 °F 42.8 °F 87% 30.05 in 10.0 mi West 4.6 mph - N/A   Clear
4:34 AM 46.4 °F 44.3 °F 42.8 °F 87% 30.05 in 10.0 mi West 4.6 mph - N/A   Clear
4:53 AM 46.4 °F 44.3 °F 42.8 °F 87% 30.05 in 10.0 mi West 4.6 mph - N/A   Clear
5:14 AM 44.6 °F 43.1 °F 42.8 °F 93% 30.06 in 10.0 mi West 3.5 mph - N/A   Clear
5:34 AM 44.6 °F - 42.8 °F 93% 30.05 in 10.0 mi Calm Calm - N/A   Clear
5:53 AM 44.6 °F 43.1 °F 42.8 °F 93% 30.05 in 10.0 mi West 3.5 mph - N/A   Clear
6:14 AM 44.6 °F 43.1 °F 42.8 °F 93% 30.05 in 10.0 mi West 3.5 mph - N/A   Clear
6:34 AM 44.6 °F - 42.8 °F 93% 30.05 in 10.0 mi Calm Calm - N/A   Clear
6:53 AM 44.6 °F - 42.8 °F 93% 30.05 in 10.0 mi Calm Calm - N/A   Clear
7:14 AM 44.6 °F 43.1 °F 42.8 °F 93% 30.05 in 7.0 mi West 3.5 mph - N/A   Clear
7:33 AM 46.4 °F 45.2 °F 44.6 °F 93% 30.05 in 10.0 mi West 3.5 mph - N/A   Clear
7:54 AM 46.4 °F 43.5 °F 44.6 °F 93% 30.04 in 10.0 mi West 5.8 mph - N/A   Clear
8:14 AM 48.2 °F - 44.6 °F 87% 30.03 in 10.0 mi West 5.8 mph - N/A   Clear
8:33 AM 51.8 °F - 44.6 °F 76% 30.02 in 10.0 mi West 4.6 mph - N/A   Clear
8:54 AM 53.6 °F - 46.4 °F 77% 30.02 in 10.0 mi West 5.8 mph - N/A   Clear
9:14 AM 55.4 °F - 46.4 °F 72% 30.02 in 10.0 mi West 5.8 mph - N/A   Clear
9:33 AM 57.2 °F - 46.4 °F 67% 30.02 in 10.0 mi West 9.2 mph - N/A   Clear
9:54 AM 57.2 °F - 46.4 °F 67% 30.01 in 10.0 mi West 5.8 mph - N/A   Clear
10:14 AM 60.8 °F - 46.4 °F 59% 30.01 in 10.0 mi West 11.5 mph - N/A   Clear
10:33 AM 60.8 °F - 46.4 °F 59% 30.00 in 10.0 mi West 9.2 mph 17.3 mph N/A   Clear
10:54 AM 62.6 °F - 46.4 °F 55% 29.99 in 10.0 mi WNW 10.4 mph 20.7 mph N/A   Clear
11:14 AM 64.4 °F - 44.6 °F 49% 29.99 in 10.0 mi WNW 11.5 mph 21.9 mph N/A   Clear
11:33 AM 66.2 °F - 44.6 °F 46% 29.98 in 10.0 mi West 11.5 mph 19.6 mph N/A   Clear
11:54 AM 66.2 °F - 44.6 °F 46% 29.97 in 10.0 mi West 8.1 mph - N/A   Clear
12:14 PM 68.0 °F - 44.6 °F 43% 29.96 in 10.0 mi West 9.2 mph 18.4 mph N/A   Clear
12:33 PM 69.8 °F - 44.6 °F 40% 29.95 in 10.0 mi West 12.7 mph 19.6 mph N/A   Clear
12:54 PM 69.8 °F - 42.8 °F 38% 29.94 in 10.0 mi West 11.5 mph 19.6 mph N/A   Clear
1:14 PM 71.6 °F - 42.8 °F 35% 29.93 in 10.0 mi West 5.8 mph 20.7 mph N/A   Clear
1:33 PM 73.4 °F - 42.8 °F 33% 29.92 in 10.0 mi West 8.1 mph 18.4 mph N/A   Clear
1:54 PM 73.4 °F - 42.8 °F 33% 29.90 in 10.0 mi West 12.7 mph 20.7 mph N/A   Clear
2:13 PM 73.4 °F - 42.8 °F 33% 29.89 in 10.0 mi West 10.4 mph 21.9 mph N/A   Clear
2:34 PM 75.2 °F - 42.8 °F 31% 29.87 in 10.0 mi West 12.7 mph 21.9 mph N/A   Clear
3:14 PM 77.0 °F - 41.0 °F 28% 29.84 in 10.0 mi WNW 13.8 mph 24.2 mph N/A   Clear
3:33 PM 78.8 °F - 41.0 °F 26% 29.84 in 10.0 mi West 13.8 mph 27.6 mph N/A   Scattered Clouds
3:54 PM 78.8 °F - 41.0 °F 26% 29.83 in 10.0 mi West 15.0 mph 26.5 mph N/A   Scattered Clouds
4:14 PM 78.8 °F - 39.2 °F 24% 29.82 in 10.0 mi WNW 13.8 mph 25.3 mph N/A   Scattered Clouds
4:33 PM 78.8 °F - 41.0 °F 26% 29.81 in 10.0 mi WNW 19.6 mph 35.7 mph N/A   Scattered Clouds
4:54 PM 78.8 °F - 41.0 °F 26% 29.82 in 10.0 mi NW 21.9 mph 34.5 mph N/A   Scattered Clouds
5:13 PM 77.0 °F - 42.8 °F 29% 29.83 in 10.0 mi NW 23.0 mph 32.2 mph N/A   Scattered Clouds
5:34 PM 75.2 °F - 44.6 °F 34% 29.85 in 10.0 mi NW 13.8 mph 33.4 mph N/A   Scattered Clouds
5:54 PM 73.4 °F - 39.2 °F 29% 29.87 in 10.0 mi NNW 15.0 mph 29.9 mph N/A   Clear
6:13 PM 71.6 °F - 39.2 °F 31% 29.88 in 10.0 mi NNW 15.0 mph 25.3 mph N/A   Clear
6:34 PM 69.8 °F - 37.4 °F 31% 29.89 in 10.0 mi NNW 16.1 mph 29.9 mph N/A   Clear
6:54 PM 68.0 °F - 35.6 °F 30% 29.90 in 10.0 mi NNW 17.3 mph 21.9 mph N/A   Clear
7:13 PM 66.2 °F - 37.4 °F 35% 29.91 in 10.0 mi NNW 15.0 mph 24.2 mph N/A   Clear
7:34 PM 66.2 °F - 39.2 °F 37% 29.92 in 10.0 mi NNW 11.5 mph 24.2 mph N/A   Clear
7:54 PM 64.4 °F - 41.0 °F 42% 29.94 in 10.0 mi NNW 12.7 mph 21.9 mph N/A   Clear
8:13 PM 62.6 °F - 42.8 °F 48% 29.95 in 10.0 mi NNW 10.4 mph - N/A   Mostly Cloudy
8:34 PM 62.6 °F - 42.8 °F 48% 29.96 in 10.0 mi NNW 10.4 mph 16.1 mph N/A   Scattered Clouds
8:54 PM 60.8 °F - 42.8 °F 52% 29.97 in 10.0 mi NNW 8.1 mph - N/A   Scattered Clouds
9:13 PM 60.8 °F - 42.8 °F 52% 29.98 in 10.0 mi NNW 6.9 mph - N/A   Clear
9:34 PM 57.2 °F - 42.8 °F 59% 29.99 in 10.0 mi NNW 5.8 mph - N/A   Clear
10:13 PM 57.2 °F - 44.6 °F 63% 30.00 in 10.0 mi NNW 8.1 mph - N/A   Clear
10:34 PM 57.2 °F - 44.6 °F 63% 30.01 in 10.0 mi NNW 9.2 mph - N/A   Scattered Clouds
10:54 PM 57.2 °F - 44.6 °F 63% 30.02 in 10.0 mi NNW 6.9 mph - N/A   Mostly Cloudy
11:13 PM 57.2 °F - 44.6 °F 63% 30.02 in 10.0 mi NW 4.6 mph - N/A   Overcast
11:39 PM 55.4 °F - 44.6 °F 67% 30.03 in 10.0 mi NW 5.8 mph - N/A   Scattered Clouds
11:54 PM 55.4 °F - 44.6 °F 67% 30.04 in 10.0 mi NNW 3.5 mph - N/A   Scattered Clouds